Time;durP1;ratioP1;P1;durP2;ratioP2;P2;SDS_P1;SDS_P2;PMS_P1;PMS_P2;Temp;Humidity;BMP_temperature;BMP_pressure;BME280_temperature;BME280_humidity;BME280_pressure;Samples;Min_cycle;Max_cycle;Signal;HPM_P1;HPM_P2
2021/10/22 00:01:54;;;;;;;9.63;1.98;;;8.70;98.30;;;;;;4999059;28;20029;-86
2021/10/22 00:04:20;;;;;;;10.10;1.77;;;8.70;98.20;;;;;;5007540;28;20017;-86
2021/10/22 00:06:46;;;;;;;9.65;1.50;;;8.70;98.30;;;;;;4990268;28;20034;-86
2021/10/22 00:09:12;;;;;;;11.25;1.85;;;8.70;98.40;;;;;;4939204;29;20114;-86
2021/10/22 00:11:43;;;;;;;9.25;1.70;;;8.60;98.50;;;;;;4940423;28;20088;-86
2021/10/22 00:14:10;;;;;;;5.85;1.55;;;8.60;98.20;;;;;;5022728;28;20033;-86
2021/10/22 00:16:35;;;;;;;5.07;1.30;;;8.60;98.00;;;;;;4991787;28;20020;-86
2021/10/22 00:19:01;;;;;;;7.50;1.30;;;8.60;98.30;;;;;;4993306;28;20035;-86
2021/10/22 00:21:27;;;;;;;8.48;2.03;;;8.60;98.10;;;;;;4977625;28;20052;-86
2021/10/22 00:23:53;;;;;;;6.68;1.83;;;8.60;98.30;;;;;;4954448;28;20051;-86
2021/10/22 00:26:18;;;;;;;7.63;1.42;;;8.60;98.20;;;;;;4923002;28;20404;-86
2021/10/22 00:28:44;;;;;;;7.63;1.63;;;8.60;98.00;;;;;;4922916;28;20031;-86
2021/10/22 00:31:11;;;;;;;6.13;1.42;;;8.50;97.70;;;;;;4973614;28;20033;-86
2021/10/22 00:33:38;;;;;;;9.60;1.50;;;8.50;98.20;;;;;;4976348;28;20036;-86
2021/10/22 00:36:05;;;;;;;9.07;1.70;;;8.50;98.10;;;;;;5027153;28;20110;-86
2021/10/22 00:38:31;;;;;;;8.85;2.00;;;8.50;98.50;;;;;;4939019;28;20031;-86
2021/10/22 00:40:57;;;;;;;7.03;1.15;;;8.50;98.30;;;;;;4938713;28;20022;-85
2021/10/22 00:43:23;;;;;;;10.93;1.77;;;8.50;98.50;;;;;;4938582;28;20019;-86
2021/10/22 00:45:52;;;;;;;6.25;1.25;;;8.50;98.40;;;;;;4922752;28;20023;-86
2021/10/22 00:48:19;;;;;;;8.32;1.58;;;8.50;98.30;;;;;;4922787;29;20061;-86
2021/10/22 00:50:51;;;;;;;6.45;1.50;;;8.40;98.50;;;;;;4919594;28;20055;-86
2021/10/22 00:53:17;;;;;;;5.00;1.35;;;8.40;97.90;;;;;;4942820;28;20066;-86
2021/10/22 00:55:43;;;;;;;11.27;1.60;;;8.40;98.30;;;;;;4985322;28;20503;-86
2021/10/22 00:58:11;;;;;;;9.35;1.95;;;8.30;98.50;;;;;;4989462;28;20181;-86
2021/10/22 01:00:37;;;;;;;8.50;1.50;;;8.30;98.40;;;;;;4938304;28;20102;-86
2021/10/22 01:03:06;;;;;;;7.25;1.35;;;8.30;98.50;;;;;;4938245;28;20023;-86
2021/10/22 01:05:32;;;;;;;9.25;2.33;;;8.30;98.50;;;;;;5009649;28;20118;-86
2021/10/22 01:07:59;;;;;;;9.35;2.03;;;8.30;98.50;;;;;;5020441;28;20029;-86
2021/10/22 01:10:25;;;;;;;8.30;1.65;;;8.20;98.40;;;;;;4949486;28;20076;-86
2021/10/22 01:12:50;;;;;;;11.82;1.65;;;8.20;98.60;;;;;;4937704;28;20031;-86
2021/10/22 01:15:16;;;;;;;13.30;2.15;;;8.20;98.50;;;;;;4974472;28;20095;-86
2021/10/22 01:17:45;;;;;;;10.68;2.10;;;8.20;98.80;;;;;;5009312;28;20037;-86
2021/10/22 01:20:16;;;;;;;9.02;2.05;;;8.10;98.60;;;;;;4955392;28;20527;-86
2021/10/22 01:22:43;;;;;;;10.43;1.98;;;8.10;98.60;;;;;;4938884;29;20043;-86
2021/10/22 01:25:13;;;;;;;11.27;2.17;;;8.10;98.20;;;;;;4922634;28;20500;-86
2021/10/22 01:27:39;;;;;;;6.43;1.55;;;8.10;98.60;;;;;;4973345;28;20025;-86
2021/10/22 01:30:07;;;;;;;6.75;1.58;;;8.10;98.70;;;;;;4973413;28;20027;-86
2021/10/22 01:32:32;;;;;;;11.73;1.88;;;8.00;98.40;;;;;;4937893;28;20023;-86
2021/10/22 01:34:58;;;;;;;10.60;2.33;;;8.00;98.30;;;;;;5012117;28;20036;-86
2021/10/22 01:37:24;;;;;;;9.32;1.77;;;8.10;98.60;;;;;;5021881;28;20039;-86
2021/10/22 01:39:49;;;;;;;9.60;1.60;;;8.00;98.50;;;;;;4938245;28;20350;-86
2021/10/22 01:42:16;;;;;;;13.80;2.33;;;8.00;98.10;;;;;;4937938;28;20054;-86
2021/10/22 01:44:43;;;;;;;11.43;1.80;;;8.00;98.20;;;;;;4954880;28;20026;-86
2021/10/22 01:47:09;;;;;;;7.53;1.55;;;8.00;98.40;;;;;;4922008;28;20027;-86
2021/10/22 01:49:34;;;;;;;8.55;1.63;;;8.00;98.30;;;;;;4937835;28;20037;-86
2021/10/22 01:52:00;;;;;;;7.88;1.45;;;8.00;98.00;;;;;;4937983;28;20481;-86
2021/10/22 01:54:27;;;;;;;10.20;1.75;;;8.00;98.30;;;;;;4921912;28;20481;-86
2021/10/22 01:56:53;;;;;;;5.60;1.80;;;7.90;98.00;;;;;;4922054;28;20038;-85
2021/10/22 01:59:18;;;;;;;6.80;1.80;;;8.00;97.90;;;;;;4992724;28;20022;-85
2021/10/22 02:01:44;;;;;;;7.72;1.55;;;8.00;98.10;;;;;;4950811;28;20017;-86
2021/10/22 02:04:10;;;;;;;10.73;1.98;;;8.00;97.90;;;;;;4968233;28;20055;-86
2021/10/22 02:06:35;;;;;;;8.60;1.88;;;8.00;98.00;;;;;;4956659;28;20020;-85
2021/10/22 02:09:01;;;;;;;6.07;1.58;;;8.00;97.50;;;;;;4921354;28;20031;-85
2021/10/22 02:11:27;;;;;;;8.77;1.52;;;7.90;97.80;;;;;;4954656;28;20027;-86
2021/10/22 02:13:53;;;;;;;8.18;1.55;;;8.00;98.10;;;;;;4961013;28;20362;-86
2021/10/22 02:16:19;;;;;;;10.77;1.60;;;7.90;97.70;;;;;;4967097;28;20024;-86
2021/10/22 02:18:45;;;;;;;8.93;1.73;;;7.90;97.90;;;;;;4951532;28;20025;-86
2021/10/22 02:21:29;;;;;;;14.70;2.83;;;7.90;97.60;;;;;;4978629;28;20030;-86
2021/10/22 02:23:55;;;;;;;12.18;2.20;;;7.90;97.90;;;;;;4937263;28;20015;-86
2021/10/22 02:26:21;;;;;;;10.32;2.00;;;7.90;97.60;;;;;;4920979;28;20501;-86
2021/10/22 02:28:47;;;;;;;9.88;1.63;;;7.80;97.60;;;;;;4958220;28;20025;-85
2021/10/22 02:31:12;;;;;;;12.30;1.95;;;7.80;97.70;;;;;;4954625;28;20039;-86
2021/10/22 02:33:38;;;;;;;7.88;1.75;;;7.80;97.50;;;;;;4934601;28;20049;-86
2021/10/22 02:36:04;;;;;;;12.80;2.95;;;7.80;97.70;;;;;;4960492;28;20028;-85
2021/10/22 02:38:30;;;;;;;6.60;1.80;;;7.70;97.20;;;;;;5020802;28;20071;-85
2021/10/22 02:40:56;;;;;;;6.30;1.60;;;7.70;97.40;;;;;;4991086;28;20429;-86
2021/10/22 02:43:22;;;;;;;7.75;1.73;;;7.70;97.60;;;;;;4949361;28;20036;-86
2021/10/22 02:45:47;;;;;;;8.15;1.90;;;7.70;97.50;;;;;;4954165;29;20051;-86
2021/10/22 02:48:13;;;;;;;11.75;2.00;;;7.70;97.60;;;;;;5025553;28;20087;-86
2021/10/22 02:50:39;;;;;;;12.10;1.90;;;7.70;97.40;;;;;;5037308;28;20029;-86
2021/10/22 02:53:05;;;;;;;13.77;2.10;;;7.70;97.40;;;;;;4987642;28;20055;-86
2021/10/22 02:55:31;;;;;;;7.50;1.70;;;7.70;97.70;;;;;;4988066;28;20028;-86
2021/10/22 02:57:56;;;;;;;11.43;2.22;;;7.60;97.50;;;;;;4994794;28;20028;-86
2021/10/22 03:00:22;;;;;;;12.02;2.03;;;7.60;97.40;;;;;;5009791;28;20037;-85
2021/10/22 03:02:48;;;;;;;9.63;1.88;;;7.60;97.50;;;;;;4954241;28;20024;-86
2021/10/22 03:05:14;;;;;;;13.13;2.35;;;7.60;97.50;;;;;;4937047;28;20028;-86
2021/10/22 03:07:40;;;;;;;8.73;2.60;;;7.60;97.80;;;;;;4980681;28;20023;-86
2021/10/22 03:10:07;;;;;;;8.80;2.42;;;7.60;97.60;;;;;;5027806;28;20540;-86
2021/10/22 03:12:35;;;;;;;10.10;2.22;;;7.60;97.70;;;;;;4955440;28;20027;-86
2021/10/22 03:15:05;;;;;;;6.60;1.98;;;7.50;97.70;;;;;;4920978;28;20484;-86
2021/10/22 03:17:46;;;;;;;11.73;1.98;;;7.50;97.60;;;;;;4996696;28;20025;-86
2021/10/22 03:20:12;;;;;;;14.27;2.50;;;7.50;97.30;;;;;;4949626;28;20028;-86
2021/10/22 03:22:39;;;;;;;9.68;1.92;;;7.50;97.30;;;;;;4998540;28;20095;-85
2021/10/22 03:25:05;;;;;;;11.57;2.00;;;7.50;97.50;;;;;;4936847;28;20047;-86
2021/10/22 03:27:34;;;;;;;10.98;2.15;;;7.50;97.70;;;;;;4923502;28;20038;-86
2021/10/22 03:30:00;;;;;;;5.72;2.10;;;7.50;97.50;;;;;;4942085;28;20034;-86
2021/10/22 03:32:26;;;;;;;9.00;2.63;;;7.50;97.60;;;;;;4996998;28;20038;-86
2021/10/22 03:34:51;;;;;;;7.13;2.03;;;7.50;97.30;;;;;;4990542;28;20382;-86
2021/10/22 03:37:17;;;;;;;11.73;4.38;;;7.50;97.30;;;;;;4965312;28;20025;-86
2021/10/22 03:39:43;;;;;;;10.73;2.65;;;7.50;97.60;;;;;;5020557;28;20025;-86
2021/10/22 03:42:09;;;;;;;7.63;2.45;;;7.50;97.60;;;;;;5020028;28;20076;-86
2021/10/22 03:44:35;;;;;;;11.07;2.75;;;7.40;97.10;;;;;;5036429;28;20036;-86
2021/10/22 03:47:00;;;;;;;9.63;2.63;;;7.50;97.40;;;;;;5027567;28;20021;-86
2021/10/22 03:49:26;;;;;;;8.80;3.05;;;7.40;97.20;;;;;;4917255;28;20039;-86
2021/10/22 03:51:53;;;;;;;13.30;2.42;;;7.40;97.40;;;;;;4935943;28;20123;-86
2021/10/22 03:54:19;;;;;;;11.23;3.13;;;7.40;97.50;;;;;;4946998;28;20025;-86
2021/10/22 03:56:45;;;;;;;10.52;2.38;;;7.40;97.30;;;;;;4979029;28;20020;-86
2021/10/22 03:59:11;;;;;;;14.75;3.40;;;7.40;97.40;;;;;;4989777;28;20051;-86
2021/10/22 04:01:36;;;;;;;11.35;3.10;;;7.40;97.40;;;;;;4919730;28;20027;-86
2021/10/22 04:04:02;;;;;;;14.13;3.28;;;7.40;97.50;;;;;;4919734;28;20496;-86
2021/10/22 04:06:28;;;;;;;12.80;3.25;;;7.40;97.50;;;;;;4919696;28;20473;-86
2021/10/22 04:08:54;;;;;;;13.90;3.08;;;7.40;97.40;;;;;;4935837;28;20043;-86
2021/10/22 04:11:19;;;;;;;11.35;2.90;;;7.40;97.60;;;;;;4986285;28;20027;-86
2021/10/22 04:13:45;;;;;;;10.48;3.25;;;7.40;97.50;;;;;;4927379;29;20396;-86
2021/10/22 04:16:11;;;;;;;12.77;3.50;;;7.40;97.30;;;;;;4922828;28;20023;-86
2021/10/22 04:18:36;;;;;;;10.40;3.03;;;7.40;97.50;;;;;;4976699;28;20505;-86
2021/10/22 04:21:02;;;;;;;14.07;3.28;;;7.40;97.70;;;;;;4964797;28;20496;-85
2021/10/22 04:23:28;;;;;;;12.05;3.15;;;7.40;97.60;;;;;;4985790;28;20027;-86
2021/10/22 04:25:54;;;;;;;10.32;2.80;;;7.40;97.60;;;;;;4915998;28;20044;-86
2021/10/22 04:28:21;;;;;;;10.95;3.20;;;7.40;97.50;;;;;;4919695;28;20024;-86
2021/10/22 04:30:47;;;;;;;12.75;3.15;;;7.40;97.70;;;;;;5005766;28;20021;-86
2021/10/22 04:33:12;;;;;;;10.70;2.83;;;7.40;97.70;;;;;;4969567;28;20046;-86
2021/10/22 04:35:38;;;;;;;13.63;3.55;;;7.50;97.80;;;;;;4962435;28;20021;-86
2021/10/22 04:40:45;;;;;;;11.15;3.55;;;7.50;97.80;;;;;;4998351;28;20111;-85
2021/10/22 04:43:16;;;;;;;13.85;3.15;;;7.50;97.70;;;;;;4960230;28;20035;-85
2021/10/22 04:45:43;;;;;;;11.27;3.00;;;7.50;97.70;;;;;;5061872;28;20024;-85
2021/10/22 04:48:12;;;;;;;11.32;3.08;;;7.50;97.70;;;;;;4956203;28;20043;-86
2021/10/22 04:50:44;;;;;;;13.93;3.42;;;7.60;97.50;;;;;;4925509;28;20406;-86
2021/10/22 04:53:10;;;;;;;10.63;2.95;;;7.60;97.80;;;;;;5002717;28;20489;-86
2021/10/22 04:55:38;;;;;;;11.00;2.83;;;7.60;97.80;;;;;;4951687;28;20017;-86
2021/10/22 04:58:04;;;;;;;17.55;3.53;;;7.60;97.70;;;;;;4958444;28;20027;-85
2021/10/22 05:00:30;;;;;;;10.07;2.70;;;7.60;98.00;;;;;;4963678;28;20485;-86
2021/10/22 05:02:56;;;;;;;12.00;2.75;;;7.60;97.70;;;;;;4951037;28;20035;-85
2021/10/22 05:05:22;;;;;;;15.15;3.10;;;7.60;98.00;;;;;;4928895;28;20072;-86
2021/10/22 05:07:48;;;;;;;11.13;3.60;;;7.60;98.00;;;;;;4949484;28;20114;-86
2021/10/22 05:10:14;;;;;;;12.73;3.10;;;7.70;98.10;;;;;;4960440;28;20184;-86
2021/10/22 05:12:39;;;;;;;12.25;3.17;;;7.70;98.40;;;;;;4982671;28;20029;-86
2021/10/22 05:15:08;;;;;;;16.00;3.25;;;7.70;98.50;;;;;;4965751;28;20534;-86
2021/10/22 05:17:33;;;;;;;11.60;3.25;;;7.70;98.40;;;;;;4975219;28;20024;-85
2021/10/22 05:20:00;;;;;;;11.65;3.30;;;7.70;98.60;;;;;;4982286;28;20024;-85
2021/10/22 05:22:25;;;;;;;10.57;2.80;;;7.70;98.90;;;;;;4991928;28;20045;-85
2021/10/22 05:24:51;;;;;;;14.10;3.75;;;7.60;98.80;;;;;;4964838;28;20040;-85
2021/10/22 05:27:17;;;;;;;14.05;3.25;;;7.60;98.80;;;;;;4928684;28;20034;-86
2021/10/22 05:29:43;;;;;;;11.88;3.85;;;7.60;99.00;;;;;;4937986;28;20051;-86
2021/10/22 05:32:09;;;;;;;12.88;2.97;;;7.60;99.00;;;;;;4959333;28;20073;-86
2021/10/22 05:34:35;;;;;;;17.02;3.45;;;7.60;99.10;;;;;;4954929;28;20023;-86
2021/10/22 05:37:01;;;;;;;12.60;2.95;;;7.60;99.10;;;;;;4963493;28;20039;-86
2021/10/22 05:42:00;;;;;;;13.25;3.10;;;7.60;99.10;;;;;;5072830;28;20045;-84
2021/10/22 05:44:26;;;;;;;16.60;4.18;;;7.60;99.00;;;;;;5041268;28;20070;-84
2021/10/22 05:46:54;;;;;;;14.40;3.83;;;7.60;99.00;;;;;;5041675;28;20055;-84
2021/10/22 05:49:23;;;;;;;15.68;3.30;;;7.60;99.00;;;;;;5057819;28;20113;-84
2021/10/22 05:51:51;;;;;;;12.55;3.25;;;7.60;99.00;;;;;;5057283;28;20111;-84
2021/10/22 05:54:16;;;;;;;13.63;3.25;;;7.60;99.10;;;;;;5075653;28;20043;-84
2021/10/22 05:56:42;;;;;;;12.75;2.75;;;7.60;99.40;;;;;;5041263;28;20470;-84
2021/10/22 05:59:08;;;;;;;14.00;3.05;;;7.60;99.60;;;;;;5046992;28;20083;-84
2021/10/22 06:01:34;;;;;;;14.15;2.97;;;7.60;99.70;;;;;;5023678;28;20470;-84
2021/10/22 06:03:59;;;;;;;14.27;3.33;;;7.60;99.80;;;;;;5049173;28;20040;-84
2021/10/22 06:06:25;;;;;;;10.35;2.60;;;7.70;99.90;;;;;;5070127;28;20021;-84
2021/10/22 06:08:51;;;;;;;12.73;2.92;;;7.70;99.90;;;;;;5062674;28;20028;-84
2021/10/22 06:11:18;;;;;;;10.18;2.55;;;7.70;99.90;;;;;;5057444;28;20060;-84
2021/10/22 06:13:44;;;;;;;14.68;3.00;;;7.80;99.90;;;;;;5041116;28;20048;-84
2021/10/22 06:16:11;;;;;;;17.77;3.30;;;7.80;99.90;;;;;;5046825;28;20057;-84
2021/10/22 06:18:45;;;;;;;10.05;3.35;;;7.80;99.90;;;;;;5021354;28;20063;-84
2021/10/22 06:21:21;;;;;;;11.18;2.80;;;7.90;99.90;;;;;;5013220;28;20029;-84
2021/10/22 06:24:00;;;;;;;11.25;2.88;;;7.90;99.80;;;;;;5042585;28;20111;-84
2021/10/22 06:26:27;;;;;;;12.35;3.38;;;7.80;99.50;;;;;;5043530;28;20044;-84
2021/10/22 06:28:54;;;;;;;11.30;3.00;;;7.80;99.80;;;;;;5054611;28;20120;-84
2021/10/22 06:31:21;;;;;;;8.60;2.47;;;7.80;99.80;;;;;;5043672;28;20028;-84
2021/10/22 06:33:47;;;;;;;10.68;3.65;;;7.80;99.80;;;;;;5057441;28;20028;-84
2021/10/22 06:36:13;;;;;;;10.60;3.05;;;7.80;99.90;;;;;;5041575;28;20033;-84
2021/10/22 06:38:39;;;;;;;15.80;3.28;;;7.90;99.90;;;;;;5057428;28;20498;-84
2021/10/22 06:41:09;;;;;;;12.43;2.92;;;7.90;99.90;;;;;;5057399;28;20394;-84
2021/10/22 06:43:39;;;;;;;11.93;3.00;;;7.90;99.90;;;;;;5075020;28;20357;-84
2021/10/22 06:46:07;;;;;;;16.70;4.50;;;7.90;99.90;;;;;;5057399;28;20021;-84
2021/10/22 06:48:34;;;;;;;12.43;3.92;;;7.90;99.90;;;;;;5040846;28;20024;-84
2021/10/22 06:51:00;;;;;;;16.23;3.75;;;7.90;99.90;;;;;;5040826;28;20033;-84
2021/10/22 06:53:26;;;;;;;15.23;3.40;;;7.90;99.90;;;;;;5041319;28;20111;-84
2021/10/22 06:55:52;;;;;;;11.73;3.67;;;7.90;99.90;;;;;;5057879;28;20107;-84
2021/10/22 06:58:18;;;;;;;16.60;3.53;;;7.90;99.90;;;;;;5058352;28;20451;-84
2021/10/22 07:00:49;;;;;;;15.55;3.80;;;7.90;99.90;;;;;;5026133;28;20028;-84
2021/10/22 07:03:26;;;;;;;13.00;3.63;;;7.90;99.90;;;;;;5023253;28;20386;-85
2021/10/22 07:08:21;;;;;;;12.45;3.03;;;7.90;99.90;;;;;;5079523;28;20020;-84
2021/10/22 07:10:47;;;;;;;14.15;3.67;;;7.90;99.90;;;;;;5052492;28;20020;-85
2021/10/22 07:13:13;;;;;;;16.30;3.38;;;7.90;99.90;;;;;;5045861;28;20474;-84
2021/10/22 07:15:40;;;;;;;15.57;4.13;;;7.90;99.90;;;;;;5034422;28;20478;-84
2021/10/22 07:18:06;;;;;;;14.55;3.72;;;7.90;99.90;;;;;;5056571;28;20036;-84
2021/10/22 07:20:33;;;;;;;13.50;3.78;;;7.90;99.90;;;;;;5040902;28;20025;-84
2021/10/22 07:23:10;;;;;;;14.75;3.80;;;8.00;99.90;;;;;;5024312;28;20029;-84
2021/10/22 07:25:38;;;;;;;26.90;4.25;;;8.00;99.90;;;;;;5035720;28;20163;-84
2021/10/22 07:28:11;;;;;;;14.85;4.03;;;8.00;99.90;;;;;;5038387;28;20524;-84
2021/10/22 07:30:37;;;;;;;14.32;3.33;;;8.00;99.90;;;;;;5057523;28;20047;-84
2021/10/22 07:33:03;;;;;;;11.25;3.90;;;8.00;99.90;;;;;;5041549;28;20082;-84
2021/10/22 07:35:29;;;;;;;18.70;3.97;;;8.00;99.90;;;;;;5032793;28;20033;-84
2021/10/22 07:37:55;;;;;;;8.52;2.92;;;8.00;99.90;;;;;;5033000;28;20060;-84
2021/10/22 07:40:21;;;;;;;15.73;4.38;;;8.00;99.90;;;;;;5040604;28;20040;-84
2021/10/22 07:42:47;;;;;;;12.95;3.72;;;8.00;99.90;;;;;;5041671;28;20064;-84
2021/10/22 07:45:12;;;;;;;17.70;3.88;;;8.10;99.90;;;;;;5026881;28;20021;-84
2021/10/22 07:47:38;;;;;;;12.23;3.20;;;8.10;99.90;;;;;;5045363;28;20385;-84
2021/10/22 07:50:07;;;;;;;11.52;3.35;;;8.20;99.90;;;;;;5033179;28;20032;-84
2021/10/22 07:52:34;;;;;;;12.82;3.30;;;8.20;99.90;;;;;;5052548;28;20043;-84
2021/10/22 07:55:00;;;;;;;13.85;3.53;;;8.30;99.90;;;;;;5072328;28;20020;-84
2021/10/22 07:57:27;;;;;;;15.90;3.40;;;8.30;99.90;;;;;;5012499;28;20059;-84
2021/10/22 07:59:54;;;;;;;11.00;3.22;;;8.40;99.90;;;;;;5052514;28;20031;-84
2021/10/22 08:02:23;;;;;;;9.85;3.15;;;8.50;99.90;;;;;;5050202;28;20067;-84
2021/10/22 08:04:50;;;;;;;12.43;2.70;;;8.50;99.90;;;;;;5041399;28;20614;-85
2021/10/22 08:07:19;;;;;;;12.85;3.45;;;8.50;99.90;;;;;;5057557;28;20027;-85
2021/10/22 08:09:46;;;;;;;14.88;2.80;;;8.60;99.90;;;;;;5037370;28;20021;-84
2021/10/22 08:12:12;;;;;;;14.13;2.92;;;8.60;99.90;;;;;;5039987;28;20037;-84
2021/10/22 08:14:39;;;;;;;18.27;3.30;;;8.70;99.90;;;;;;5034270;28;20024;-84
2021/10/22 08:17:25;;;;;;;17.33;3.60;;;8.70;99.90;;;;;;5059472;28;20069;-84
2021/10/22 08:19:58;;;;;;;11.73;3.03;;;8.80;99.90;;;;;;5056995;28;20025;-83
2021/10/22 08:22:32;;;;;;;12.45;2.92;;;8.90;99.90;;;;;;5078887;28;20020;-84
2021/10/22 08:25:15;;;;;;;11.20;2.80;;;8.90;99.90;;;;;;5053221;28;20598;-82
2021/10/22 08:27:50;;;;;;;11.50;3.33;;;9.00;99.80;;;;;;5058472;28;20031;-82
2021/10/22 08:30:23;;;;;;;9.20;2.90;;;9.00;99.50;;;;;;5045136;28;20021;-83
2021/10/22 08:32:51;;;;;;;12.77;3.05;;;9.00;99.80;;;;;;5055554;28;20089;-82
2021/10/22 08:35:22;;;;;;;10.25;2.47;;;9.00;99.60;;;;;;5042230;28;20112;-83
2021/10/22 08:37:48;;;;;;;12.00;2.83;;;9.10;99.60;;;;;;5041869;28;20024;-82
2021/10/22 08:40:15;;;;;;;10.02;3.10;;;9.10;99.40;;;;;;5058318;28;20013;-83
2021/10/22 08:42:45;;;;;;;13.88;2.97;;;9.10;99.60;;;;;;5058706;28;20032;-83
2021/10/22 08:45:13;;;;;;;10.03;3.57;;;9.20;99.20;;;;;;5076408;28;20028;-83
2021/10/22 08:47:40;;;;;;;12.57;3.33;;;9.20;99.50;;;;;;5038665;28;20497;-82
2021/10/22 08:50:15;;;;;;;12.75;3.38;;;9.30;99.60;;;;;;5070164;28;20012;-84
2021/10/22 08:52:41;;;;;;;11.95;2.70;;;9.40;99.60;;;;;;5047143;28;20024;-83
2021/10/22 08:55:09;;;;;;;11.05;2.40;;;9.50;99.20;;;;;;5058362;28;20111;-82
2021/10/22 08:57:38;;;;;;;10.63;2.40;;;9.60;99.10;;;;;;5058628;28;20035;-82
2021/10/22 09:00:08;;;;;;;9.05;2.70;;;9.60;99.20;;;;;;5042011;28;20016;-82
2021/10/22 09:02:33;;;;;;;9.82;2.38;;;9.60;98.60;;;;;;5062252;28;20461;-83
2021/10/22 09:05:14;;;;;;;10.07;2.53;;;9.70;98.80;;;;;;5041800;28;20047;-84
2021/10/22 09:07:46;;;;;;;11.43;2.70;;;9.70;98.80;;;;;;5075995;28;20103;-85
2021/10/22 09:10:21;;;;;;;13.30;2.47;;;9.80;98.90;;;;;;5057784;28;20032;-85
2021/10/22 09:12:56;;;;;;;9.77;2.65;;;9.80;98.40;;;;;;5058052;28;20047;-84
2021/10/22 09:15:27;;;;;;;11.30;2.50;;;9.80;98.50;;;;;;5043897;28;20044;-84
2021/10/22 09:17:55;;;;;;;10.43;2.40;;;9.80;98.30;;;;;;5075900;28;20423;-84
2021/10/22 09:20:23;;;;;;;11.10;2.45;;;10.00;98.40;;;;;;5057671;28;20128;-84
2021/10/22 09:22:55;;;;;;;10.07;2.67;;;10.00;98.60;;;;;;5041220;28;20031;-82
2021/10/22 09:25:23;;;;;;;12.68;2.63;;;10.00;98.10;;;;;;5074914;28;20051;-82
2021/10/22 09:27:59;;;;;;;15.02;2.45;;;10.10;98.10;;;;;;5057597;28;20029;-83
2021/10/22 09:30:33;;;;;;;11.00;3.00;;;10.20;97.80;;;;;;5049988;28;20048;-82
2021/10/22 09:33:02;;;;;;;11.73;2.42;;;10.20;97.80;;;;;;5046661;28;20059;-82
2021/10/22 09:35:44;;;;;;;8.07;2.28;;;10.30;97.90;;;;;;5055879;28;20060;-83
2021/10/22 09:38:11;;;;;;;11.93;2.45;;;10.30;97.80;;;;;;5052724;28;20025;-82
2021/10/22 09:40:39;;;;;;;12.75;2.50;;;10.30;97.70;;;;;;5057282;28;20040;-82
2021/10/22 09:43:16;;;;;;;9.93;2.22;;;10.30;97.80;;;;;;5057471;28;20024;-81
2021/10/22 09:45:44;;;;;;;11.07;2.05;;;10.40;97.70;;;;;;5049629;28;20370;-81
2021/10/22 09:48:28;;;;;;;12.65;2.40;;;10.40;97.60;;;;;;5065920;28;20020;-82
2021/10/22 09:50:58;;;;;;;7.90;1.83;;;10.40;97.70;;;;;;5050282;28;20024;-82
2021/10/22 09:53:28;;;;;;;12.05;2.00;;;10.40;97.80;;;;;;5057103;28;20013;-82
2021/10/22 09:56:07;;;;;;;10.90;2.15;;;10.50;97.70;;;;;;5049961;28;20025;-83
2021/10/22 09:58:36;;;;;;;12.80;2.20;;;10.50;97.50;;;;;;5054918;28;20074;-82
2021/10/22 10:01:09;;;;;;;11.25;2.22;;;10.50;97.50;;;;;;5056739;28;20039;-83
2021/10/22 10:03:44;;;;;;;17.17;2.80;;;10.60;97.60;;;;;;5039805;28;20386;-84
2021/10/22 10:06:10;;;;;;;9.35;2.20;;;10.60;97.90;;;;;;5036758;28;20103;-83
2021/10/22 10:08:40;;;;;;;9.88;2.05;;;10.60;97.90;;;;;;5056993;28;20108;-84
2021/10/22 10:11:08;;;;;;;10.38;2.17;;;10.60;98.20;;;;;;5051816;28;20458;-83
2021/10/22 10:13:34;;;;;;;11.45;2.42;;;10.60;98.10;;;;;;5074858;28;20021;-84
2021/10/22 10:16:06;;;;;;;8.25;1.85;;;10.60;98.00;;;;;;5052162;28;20033;-84
2021/10/22 10:18:47;;;;;;;9.40;1.83;;;10.60;98.00;;;;;;5066417;28;20354;-84
2021/10/22 10:21:16;;;;;;;7.40;1.98;;;10.60;98.00;;;;;;5059037;28;20013;-83
2021/10/22 10:23:43;;;;;;;11.77;2.25;;;10.70;98.10;;;;;;5042585;28;20424;-85
2021/10/22 10:26:20;;;;;;;12.27;2.45;;;10.70;98.10;;;;;;5061921;28;20104;-86
2021/10/22 10:28:49;;;;;;;11.95;2.53;;;10.60;98.40;;;;;;5062108;28;20362;-83
2021/10/22 10:31:32;;;;;;;9.55;2.50;;;10.70;98.70;;;;;;5063459;28;20478;-83
2021/10/22 10:34:22;;;;;;;7.97;2.22;;;10.60;98.70;;;;;;5075558;28;20032;-83
2021/10/22 10:36:50;;;;;;;12.60;2.65;;;10.60;98.90;;;;;;5068804;28;20084;-83
2021/10/22 10:39:50;;;;;;;10.50;2.60;;;10.60;99.10;;;;;;5056106;28;20027;-84
2021/10/22 10:42:19;;;;;;;9.43;2.10;;;10.60;99.20;;;;;;5057849;28;20124;-85
2021/10/22 10:44:46;;;;;;;10.10;2.78;;;10.60;99.70;;;;;;5052941;28;20041;-85
2021/10/22 10:47:30;;;;;;;12.43;2.55;;;10.60;99.80;;;;;;5052909;28;20434;-84
2021/10/22 10:49:57;;;;;;;12.27;3.00;;;10.50;99.90;;;;;;5052744;28;20123;-84
2021/10/22 10:52:38;;;;;;;11.35;2.85;;;10.50;99.90;;;;;;5053994;28;20104;-84
2021/10/22 10:55:22;;;;;;;12.55;2.60;;;10.50;99.90;;;;;;5056164;28;20146;-85
2021/10/22 10:58:00;;;;;;;10.02;3.00;;;10.50;99.90;;;;;;5051714;28;20052;-84
2021/10/22 11:00:35;;;;;;;16.60;3.55;;;10.50;99.90;;;;;;5068646;28;20029;-84
2021/10/22 11:03:07;;;;;;;9.25;3.20;;;10.50;99.90;;;;;;5046832;28;20103;-84
2021/10/22 11:05:56;;;;;;;11.38;3.28;;;10.50;99.90;;;;;;5051345;28;20474;-83
2021/10/22 11:08:37;;;;;;;15.32;3.35;;;10.50;99.90;;;;;;5049002;28;20029;-84
2021/10/22 11:11:15;;;;;;;16.10;2.78;;;10.50;99.90;;;;;;5050808;28;20390;-83
2021/10/22 11:13:51;;;;;;;12.88;2.58;;;10.50;99.90;;;;;;5053752;28;20033;-83
2021/10/22 11:16:27;;;;;;;16.35;2.88;;;10.60;99.90;;;;;;5052981;28;20025;-83
2021/10/22 11:19:02;;;;;;;14.20;2.50;;;10.60;99.90;;;;;;5052102;28;20025;-83
2021/10/22 11:21:30;;;;;;;15.75;3.03;;;10.60;99.90;;;;;;5052341;28;20319;-82
2021/10/22 11:23:58;;;;;;;14.65;3.70;;;10.60;99.90;;;;;;5050469;28;20029;-86
2021/10/22 11:26:24;;;;;;;15.73;2.80;;;10.70;99.90;;;;;;5049236;28;20490;-85
2021/10/22 11:29:00;;;;;;;8.73;2.13;;;10.70;99.90;;;;;;5039569;28;20112;-85
2021/10/22 11:31:56;;;;;;;6.25;1.70;;;10.70;99.90;;;;;;5047886;28;20175;-85
2021/10/22 11:34:31;;;;;;;13.18;2.00;;;10.80;99.90;;;;;;5052846;28;20502;-85
2021/10/22 11:37:25;;;;;;;9.38;1.75;;;10.80;99.90;;;;;;5051668;28;20032;-85
2021/10/22 11:39:53;;;;;;;9.90;2.10;;;10.90;99.90;;;;;;5055368;28;20033;-84
2021/10/22 11:42:31;;;;;;;8.30;2.08;;;11.00;99.90;;;;;;5038609;28;20053;-85
2021/10/22 11:45:12;;;;;;;10.38;1.90;;;11.10;99.90;;;;;;5051060;28;20372;-84
2021/10/22 11:47:53;;;;;;;13.68;1.92;;;11.10;99.90;;;;;;5031455;28;20375;-86
2021/10/22 11:50:27;;;;;;;12.00;1.80;;;11.20;99.90;;;;;;5032999;28;20024;-86
2021/10/22 11:53:13;;;;;;;13.95;2.15;;;11.30;99.90;;;;;;5032281;28;20017;-83
2021/10/22 11:55:45;;;;;;;11.13;2.17;;;11.40;99.90;;;;;;5027845;28;20076;-84
2021/10/22 11:58:11;;;;;;;15.27;2.95;;;11.40;99.90;;;;;;5029644;28;20026;-83
2021/10/22 12:01:04;;;;;;;10.52;2.40;;;11.50;99.90;;;;;;5032316;28;20070;-84
2021/10/22 12:03:40;;;;;;;16.63;2.65;;;11.50;99.90;;;;;;5015097;28;20070;-83
2021/10/22 12:06:27;;;;;;;10.60;1.85;;;11.50;99.90;;;;;;5015990;28;20022;-83
2021/10/22 12:08:54;;;;;;;6.55;1.40;;;11.60;99.90;;;;;;5030364;28;20382;-83
2021/10/22 12:11:20;;;;;;;9.85;2.08;;;11.60;99.90;;;;;;5048571;28;20026;-84
2021/10/22 12:13:47;;;;;;;8.63;2.00;;;11.70;99.90;;;;;;5032515;28;20041;-85
2021/10/22 12:16:31;;;;;;;9.45;1.70;;;11.80;99.90;;;;;;5019473;28;20036;-84
2021/10/22 12:18:59;;;;;;;11.77;2.10;;;11.80;99.90;;;;;;5031961;28;20041;-85
2021/10/22 12:21:32;;;;;;;12.43;1.92;;;11.80;99.90;;;;;;5003940;28;20021;-83
2021/10/22 12:24:00;;;;;;;9.25;2.13;;;11.90;99.90;;;;;;5017957;28;20476;-84
2021/10/22 12:26:28;;;;;;;13.68;2.58;;;11.90;99.90;;;;;;5048514;28;20367;-84
2021/10/22 12:29:11;;;;;;;7.53;1.40;;;11.90;99.90;;;;;;5033046;28;20044;-84
2021/10/22 12:31:44;;;;;;;14.30;2.17;;;11.90;99.90;;;;;;5032966;28;20079;-85
2021/10/22 12:34:15;;;;;;;6.43;1.67;;;12.00;99.90;;;;;;5022830;28;20026;-83
2021/10/22 12:36:44;;;;;;;11.00;1.80;;;12.00;99.90;;;;;;5029945;28;20143;-84
2021/10/22 12:39:26;;;;;;;9.23;1.77;;;12.00;99.90;;;;;;5022164;28;20034;-84
2021/10/22 12:41:54;;;;;;;11.98;2.55;;;12.00;99.90;;;;;;5052174;28;20045;-84
2021/10/22 12:44:28;;;;;;;10.60;2.22;;;12.00;99.90;;;;;;5028666;28;20024;-84
2021/10/22 12:47:00;;;;;;;8.65;2.03;;;12.00;99.90;;;;;;5072742;28;20017;-84
2021/10/22 12:49:30;;;;;;;12.07;2.80;;;12.00;99.90;;;;;;5054746;28;20509;-84
2021/10/22 12:51:58;;;;;;;15.15;3.55;;;12.00;99.90;;;;;;5072622;28;20030;-84
2021/10/22 12:54:24;;;;;;;11.52;2.47;;;12.00;99.90;;;;;;5072595;28;20020;-84
2021/10/22 12:56:57;;;;;;;10.40;1.80;;;12.00;99.90;;;;;;5054660;28;20039;-84
2021/10/22 12:59:25;;;;;;;10.38;2.50;;;12.10;99.60;;;;;;5072524;28;20078;-84
2021/10/22 13:01:54;;;;;;;12.18;3.15;;;12.10;99.90;;;;;;5057907;28;20054;-84
2021/10/22 13:04:23;;;;;;;11.90;4.88;;;12.10;99.90;;;;;;5019733;28;20492;-84
2021/10/22 13:15:10;;;;;;;11.35;2.05;;;12.20;99.90;;;;;;5076443;28;20024;-84